createdAt,value
2018-10-03T00:01:57.316Z,75.23
2018-10-03T00:04:25.694Z,75.64
2018-10-03T00:06:54.072Z,75.41
2018-10-03T00:09:22.441Z,75.47
2018-10-03T00:11:50.889Z,75.45
2018-10-03T00:14:19.276Z,75.26
2018-10-03T00:16:47.637Z,74.95
2018-10-03T00:19:16.001Z,75.36
2018-10-03T00:21:44.353Z,75.32
2018-10-03T00:24:12.709Z,74.88
2018-10-03T00:26:42.157Z,74.74
2018-10-03T00:29:10.534Z,74.12
2018-10-03T00:31:38.888Z,73.63
2018-10-03T00:34:07.252Z,73.24
2018-10-03T00:36:35.645Z,75.88
2018-10-03T00:39:07.009Z,78.72
2018-10-03T00:41:35.356Z,79.01
2018-10-03T00:44:03.694Z,79.68
2018-10-03T00:46:32.076Z,79.45
2018-10-03T00:49:00.425Z,79.56
2018-10-03T00:51:28.763Z,79.48
2018-10-03T00:53:57.109Z,78.86
2018-10-03T00:56:25.467Z,77.48
2018-10-03T00:58:53.826Z,76.81
2018-10-03T01:01:22.176Z,76.32
2018-10-03T01:03:50.553Z,77.21
2018-10-03T01:06:18.892Z,76.38
2018-10-03T01:08:47.605Z,77.06
2018-10-03T01:11:15.916Z,76.86
2018-10-03T01:13:44.256Z,76.90
2018-10-03T01:16:12.605Z,76.54
2018-10-03T01:18:40.933Z,75.95
2018-10-03T01:21:09.317Z,75.36
2018-10-03T01:23:37.668Z,75.72
2018-10-03T01:26:06.075Z,75.82
2018-10-03T01:28:34.400Z,76.02
2018-10-03T01:31:02.744Z,76.43
2018-10-03T01:33:31.092Z,76.86
2018-10-03T01:35:59.475Z,77.86
2018-10-03T01:38:27.854Z,78.52
2018-10-03T01:40:56.205Z,78.71
2018-10-03T01:43:24.561Z,78.85
2018-10-03T01:45:53.021Z,79.07
2018-10-03T01:48:21.381Z,81.64
2018-10-03T01:50:50.811Z,84.26
2018-10-03T01:53:19.152Z,87.16
2018-10-03T01:55:47.515Z,87.46
2018-10-03T01:58:15.890Z,87.96
2018-10-03T02:00:44.244Z,89.80
2018-10-03T02:03:12.721Z,90.71
2018-10-03T02:05:41.081Z,90.74
2018-10-03T02:08:09.421Z,90.03
2018-10-03T02:10:37.787Z,89.95
2018-10-03T02:13:06.260Z,89.98
2018-10-03T02:15:34.605Z,89.15
2018-10-03T02:18:04.025Z,88.09
2018-10-03T02:20:32.434Z,86.98
2018-10-03T02:23:00.796Z,87.21
2018-10-03T02:25:29.158Z,87.35
2018-10-03T02:27:57.540Z,87.12
2018-10-03T02:30:25.942Z,86.66
2018-10-03T02:32:56.332Z,85.46
2018-10-03T02:35:24.721Z,85.57
2018-10-03T02:37:53.057Z,85.41
2018-10-03T02:40:21.433Z,85.49
2018-10-03T02:42:49.797Z,85.34
2018-10-03T02:45:20.754Z,85.43
2018-10-03T02:47:51.855Z,84.59
2018-10-03T02:50:20.522Z,84.35
2018-10-03T02:52:48.825Z,84.20
2018-10-03T02:55:17.206Z,84.21
2018-10-03T02:57:45.806Z,83.55
2018-10-03T03:00:14.177Z,83.43
2018-10-03T03:02:42.573Z,82.82
2018-10-03T03:05:11.022Z,82.91
2018-10-03T03:07:39.401Z,82.74
2018-10-03T03:10:07.841Z,82.75
2018-10-03T03:12:36.189Z,82.16
2018-10-03T03:15:04.609Z,81.95
2018-10-03T03:17:33.000Z,81.87
2018-10-03T03:20:01.352Z,81.72
2018-10-03T03:22:31.758Z,81.21
2018-10-03T03:25:00.116Z,81.63
2018-10-03T03:27:28.460Z,81.33
2018-10-03T03:29:57.929Z,81.09
2018-10-03T03:32:26.307Z,80.60
2018-10-03T03:34:54.693Z,80.77
2018-10-03T03:37:23.236Z,80.52
2018-10-03T03:39:51.597Z,80.75
2018-10-03T03:42:20.019Z,80.64
2018-10-03T03:44:48.412Z,79.97
2018-10-03T03:47:16.797Z,80.64
2018-10-03T03:49:45.170Z,80.50
2018-10-03T03:52:14.570Z,80.82
2018-10-03T03:54:42.931Z,81.53
2018-10-03T03:57:11.287Z,81.64
2018-10-03T03:59:39.673Z,81.43
2018-10-03T04:02:08.075Z,80.99
2018-10-03T04:04:36.505Z,81.27
2018-10-03T04:07:04.877Z,81.34
2018-10-03T04:09:34.264Z,81.93
2018-10-03T04:12:02.604Z,82.06
2018-10-03T04:14:33.063Z,81.91
2018-10-03T04:17:01.421Z,82.19
2018-10-03T04:19:29.820Z,82.29
2018-10-03T04:21:58.178Z,82.59
2018-10-03T04:24:26.564Z,82.99
2018-10-03T04:26:54.896Z,83.48
2018-10-03T04:29:23.301Z,83.76
2018-10-03T04:31:51.668Z,83.83
2018-10-03T04:34:20.043Z,83.84
2018-10-03T04:36:48.425Z,83.83
2018-10-03T04:39:16.789Z,84.39
2018-10-03T04:41:45.128Z,84.87
2018-10-03T04:44:13.488Z,84.87
2018-10-03T04:46:41.836Z,84.90
2018-10-03T04:49:10.211Z,84.93
2018-10-03T04:51:38.577Z,83.97
2018-10-03T04:54:07.045Z,84.10
2018-10-03T04:56:35.745Z,84.36
2018-10-03T04:59:04.384Z,83.58
2018-10-03T05:01:32.725Z,83.01
2018-10-03T05:04:01.174Z,82.08
2018-10-03T05:06:29.599Z,81.31
2018-10-03T05:08:57.957Z,81.38
2018-10-03T05:11:26.403Z,81.10
2018-10-03T05:13:54.713Z,79.79
2018-10-03T05:16:23.061Z,79.37
2018-10-03T05:18:51.431Z,79.98
2018-10-03T05:21:19.782Z,79.97
2018-10-03T05:23:48.136Z,80.09
2018-10-03T05:26:16.484Z,80.41
2018-10-03T05:28:44.836Z,80.35
2018-10-03T05:31:13.180Z,80.18
2018-10-03T05:33:41.574Z,80.20
2018-10-03T05:36:09.980Z,80.45
2018-10-03T05:38:38.309Z,80.25
2018-10-03T05:41:07.732Z,79.58
2018-10-03T05:43:36.079Z,78.98
2018-10-03T05:46:04.441Z,78.59
2018-10-03T05:49:36.380Z,78.15
2018-10-03T05:52:04.769Z,77.83
2018-10-03T05:54:33.194Z,78.01
2018-10-03T05:57:02.656Z,77.12
2018-10-03T05:59:31.019Z,77.48
2018-10-03T06:01:59.481Z,76.98
2018-10-03T06:04:27.982Z,76.85
2018-10-03T06:06:56.355Z,76.62
2018-10-03T06:09:24.729Z,76.08
2018-10-03T06:11:53.105Z,75.65
2018-10-03T06:14:22.480Z,75.85
2018-10-03T06:16:50.833Z,76.03
2018-10-03T06:19:19.310Z,75.16
2018-10-03T06:21:47.720Z,74.70
2018-10-03T06:24:16.062Z,73.17
2018-10-03T06:26:44.436Z,72.61
2018-10-03T06:29:12.812Z,72.31
2018-10-03T06:31:41.164Z,72.80
2018-10-03T06:34:09.532Z,72.43
2018-10-03T06:36:37.913Z,71.70
2018-10-03T06:39:08.213Z,71.97
2018-10-03T06:41:37.625Z,71.54
2018-10-03T06:44:05.993Z,71.27
2018-10-03T06:46:35.405Z,70.14
2018-10-03T06:49:03.873Z,69.55
2018-10-03T06:51:32.261Z,70.33
2018-10-03T06:54:00.684Z,70.61
2018-10-03T06:56:29.338Z,69.83
2018-10-03T06:58:57.899Z,69.89
2018-10-03T07:01:26.268Z,69.28
2018-10-03T07:03:54.680Z,69.04
2018-10-03T07:06:23.073Z,68.62
2018-10-03T07:08:51.485Z,68.05
2018-10-03T07:11:19.882Z,68.49
2018-10-03T07:13:48.241Z,69.16
2018-10-03T07:16:16.892Z,69.06
2018-10-03T07:18:45.257Z,68.97
2018-10-03T07:21:13.626Z,68.70
2018-10-03T07:23:41.989Z,68.15
2018-10-03T07:26:11.030Z,68.28
2018-10-03T07:28:39.375Z,68.47
2018-10-03T07:31:07.909Z,67.71
2018-10-03T07:33:36.329Z,67.38
2018-10-03T07:36:04.977Z,67.99
2018-10-03T07:38:33.317Z,67.95
2018-10-03T07:41:01.696Z,68.17
2018-10-03T07:43:32.085Z,67.53
2018-10-03T07:46:00.481Z,66.53
2018-10-03T07:48:28.849Z,65.96
2018-10-03T07:50:57.216Z,66.00
2018-10-03T07:53:26.052Z,65.16
2018-10-03T07:55:54.394Z,64.17
2018-10-03T07:58:22.775Z,65.58
2018-10-03T08:00:51.124Z,66.06
2018-10-03T08:03:20.596Z,65.99
2018-10-03T08:05:49.928Z,65.71
2018-10-03T08:08:18.292Z,64.88
2018-10-03T08:10:46.640Z,64.22
2018-10-03T08:13:16.028Z,63.73
2018-10-03T08:15:44.424Z,62.70
2018-10-03T08:18:12.787Z,62.53
2018-10-03T08:20:41.140Z,61.81
2018-10-03T08:23:09.548Z,61.91
2018-10-03T08:25:37.940Z,60.74
2018-10-03T08:28:06.573Z,61.02
2018-10-03T08:30:34.924Z,61.67
2018-10-03T08:33:03.336Z,61.47
2018-10-03T08:35:31.657Z,61.80
2018-10-03T08:38:00.068Z,60.73
2018-10-03T08:40:28.420Z,61.00
2018-10-03T08:42:57.104Z,60.71
2018-10-03T08:45:25.491Z,61.41
2018-10-03T08:47:53.859Z,61.40
2018-10-03T08:50:22.225Z,59.80
2018-10-03T08:52:50.625Z,58.43
2018-10-03T08:55:19.161Z,59.46
2018-10-03T08:57:47.557Z,58.35
2018-10-03T09:00:15.913Z,59.24
2018-10-03T09:02:44.308Z,59.94
2018-10-03T09:05:13.361Z,57.22
2018-10-03T09:07:41.800Z,58.33
2018-10-03T09:10:10.355Z,58.04
2018-10-03T09:12:38.903Z,58.02
2018-10-03T09:15:08.685Z,57.24
2018-10-03T09:17:38.372Z,57.27
2018-10-03T09:20:06.915Z,56.53
2018-10-03T09:22:37.409Z,56.55
2018-10-03T09:25:05.836Z,57.31
2018-10-03T09:27:34.296Z,57.00
2018-10-03T09:30:02.677Z,56.31
2018-10-03T09:32:32.117Z,53.95
2018-10-03T09:35:00.497Z,54.92
2018-10-03T09:37:28.865Z,53.31
2018-10-03T09:39:57.315Z,53.55
2018-10-03T09:42:25.791Z,52.29
2018-10-03T09:44:54.189Z,52.01
2018-10-03T09:47:22.611Z,52.19
2018-10-03T09:49:50.973Z,53.19
2018-10-03T09:52:19.328Z,51.14
2018-10-03T09:54:48.787Z,51.72
2018-10-03T09:57:18.219Z,51.74
2018-10-03T09:59:46.636Z,51.15
2018-10-03T10:02:15.037Z,50.51
2018-10-03T10:04:43.401Z,49.74
2018-10-03T10:07:12.092Z,48.96
2018-10-03T10:09:40.445Z,49.00
2018-10-03T10:12:08.809Z,50.15
2018-10-03T10:14:37.283Z,48.87
2018-10-03T10:17:05.724Z,47.62
2018-10-03T10:19:34.060Z,48.48
2018-10-03T10:22:02.541Z,49.09
2018-10-03T10:24:30.908Z,48.43
2018-10-03T10:26:59.301Z,49.48
2018-10-03T10:32:18.351Z,50.86
2018-10-03T10:34:46.690Z,49.75
2018-10-03T10:37:14.990Z,50.67
2018-10-03T10:39:43.375Z,50.25
2018-10-03T10:42:11.778Z,49.21
2018-10-03T10:44:40.106Z,48.48
2018-10-03T10:47:08.561Z,48.76
2018-10-03T10:49:37.047Z,49.90
2018-10-03T10:52:05.404Z,50.50
2018-10-03T10:54:33.812Z,49.96
2018-10-03T10:57:02.176Z,50.24
2018-10-03T10:59:31.494Z,50.70
2018-10-03T11:01:59.868Z,49.67
2018-10-03T11:04:28.221Z,51.28
2018-10-03T11:06:56.594Z,50.55
2018-10-03T11:09:24.948Z,49.37
2018-10-03T11:11:53.287Z,50.84
2018-10-03T11:14:21.641Z,50.68
2018-10-03T11:16:50.052Z,49.60
2018-10-03T11:19:18.431Z,48.82
2018-10-03T11:21:46.781Z,48.70
2018-10-03T11:24:15.334Z,50.06
2018-10-03T11:26:43.538Z,50.29
2018-10-03T11:29:11.888Z,48.84
2018-10-03T11:31:40.237Z,49.11
2018-10-03T11:34:08.566Z,49.23
2018-10-03T11:36:36.944Z,51.53
2018-10-03T11:39:07.513Z,52.51
2018-10-03T11:41:36.280Z,51.53
2018-10-03T11:44:04.630Z,51.80
2018-10-03T11:46:32.970Z,51.01
2018-10-03T11:49:01.924Z,49.68
2018-10-03T11:51:30.269Z,50.00
2018-10-03T11:53:58.605Z,49.23
2018-10-03T11:56:27.544Z,50.49
2018-10-03T11:58:55.880Z,50.37
2018-10-03T12:01:24.244Z,51.18
2018-10-03T12:03:52.641Z,51.01
2018-10-03T12:06:21.089Z,50.98
2018-10-03T12:08:49.380Z,48.91
2018-10-03T12:11:17.825Z,48.39
2018-10-03T12:13:46.251Z,48.33
2018-10-03T12:16:14.540Z,47.06
2018-10-03T12:18:42.965Z,46.97
2018-10-03T12:21:11.321Z,46.15
2018-10-03T12:23:39.772Z,44.17
2018-10-03T12:26:08.269Z,44.20
2018-10-03T12:28:37.553Z,44.92
2018-10-03T12:31:05.936Z,44.77
2018-10-03T12:33:34.488Z,44.58
2018-10-03T12:36:02.983Z,43.86
2018-10-03T12:38:32.421Z,44.07
2018-10-03T12:41:00.755Z,43.76
2018-10-03T12:43:29.112Z,44.93
2018-10-03T12:45:57.435Z,47.49
2018-10-03T12:48:25.787Z,51.25
2018-10-03T12:50:54.132Z,52.83
2018-10-03T12:53:22.673Z,52.80
2018-10-03T12:55:51.025Z,53.14
2018-10-03T12:58:19.372Z,52.01
2018-10-03T13:00:48.731Z,51.76
2018-10-03T13:03:18.147Z,51.20
2018-10-03T13:05:46.501Z,51.75
2018-10-03T13:08:14.881Z,51.48
2018-10-03T13:13:34.836Z,51.42
2018-10-03T13:16:03.197Z,51.71
2018-10-03T13:18:31.760Z,52.24
2018-10-03T13:21:00.149Z,52.19
2018-10-03T13:23:28.629Z,53.87
2018-10-03T13:25:56.984Z,53.06
2018-10-03T13:28:25.569Z,52.88
2018-10-03T13:30:54.049Z,53.54
2018-10-03T13:33:22.424Z,55.79
2018-10-03T13:35:51.040Z,57.02
2018-10-03T13:38:19.467Z,57.84
2018-10-03T13:40:47.948Z,57.19
2018-10-03T13:43:16.288Z,57.16
2018-10-03T13:45:44.728Z,55.95
2018-10-03T13:48:13.153Z,55.89
2018-10-03T13:50:41.570Z,55.83
2018-10-03T13:53:09.973Z,55.49
2018-10-03T13:55:38.357Z,55.68
2018-10-03T14:05:16.580Z,54.40
2018-10-03T14:07:46.924Z,54.63
2018-10-03T14:10:15.276Z,54.25
2018-10-03T14:12:43.627Z,52.68
2018-10-03T14:15:12.028Z,52.51
2018-10-03T14:17:40.392Z,53.42
2018-10-03T14:20:08.768Z,52.63
2018-10-03T14:22:37.125Z,52.77
2018-10-03T14:25:05.914Z,50.95
2018-10-03T14:27:35.445Z,51.63
2018-10-03T14:30:03.837Z,51.80
2018-10-03T14:32:32.201Z,52.32
2018-10-03T14:35:02.615Z,52.75
2018-10-03T14:37:30.941Z,54.37
2018-10-03T14:39:59.329Z,55.65
2018-10-03T14:42:27.681Z,55.10
2018-10-03T14:44:56.061Z,56.20
2018-10-03T14:47:25.022Z,57.59
2018-10-03T14:49:53.370Z,58.42
2018-10-03T14:52:21.844Z,58.47
2018-10-03T14:54:50.134Z,57.08
2018-10-03T14:57:18.661Z,55.98
2018-10-03T14:59:47.036Z,56.27
2018-10-03T15:02:15.397Z,56.12
2018-10-03T15:04:43.788Z,55.48
2018-10-03T15:07:12.141Z,57.46
2018-10-03T15:09:40.513Z,59.97
2018-10-03T15:12:09.224Z,61.17
2018-10-03T15:14:37.587Z,61.21
2018-10-03T15:17:06.153Z,59.32
2018-10-03T15:19:34.554Z,49.76
2018-10-03T15:22:02.920Z,45.93
2018-10-03T15:24:31.289Z,41.88
2018-10-03T15:26:59.740Z,50.56
2018-10-03T15:29:28.284Z,51.74
2018-10-03T15:31:56.633Z,52.48
2018-10-03T15:34:25.245Z,56.88
2018-10-03T15:36:53.773Z,58.54
2018-10-03T15:39:22.121Z,60.00
2018-10-03T15:41:50.568Z,60.31
2018-10-03T15:44:18.949Z,60.55
2018-10-03T15:46:47.451Z,60.93
2018-10-03T15:49:16.788Z,62.20
2018-10-03T15:51:45.912Z,62.33
2018-10-03T15:54:14.280Z,62.95
2018-10-03T15:56:42.977Z,62.89
2018-10-03T15:59:11.376Z,62.73
2018-10-03T16:01:41.052Z,62.31
2018-10-03T16:04:09.824Z,61.80
2018-10-03T16:06:38.157Z,61.83
2018-10-03T16:09:07.562Z,61.82
2018-10-03T16:11:35.953Z,61.86
2018-10-03T16:14:04.317Z,62.54
2018-10-03T16:16:32.696Z,62.86
2018-10-03T16:19:01.057Z,63.14
2018-10-03T16:21:29.409Z,63.52
2018-10-03T16:23:58.141Z,63.74
2018-10-03T16:26:26.582Z,63.61
2018-10-03T16:28:55.860Z,64.03
2018-10-03T16:31:24.242Z,64.05
2018-10-03T16:33:52.580Z,64.10
2018-10-03T16:36:20.976Z,64.23
2018-10-03T16:38:49.389Z,64.26
2018-10-03T16:41:18.799Z,63.84
2018-10-03T16:43:47.124Z,63.81
2018-10-03T16:46:15.592Z,64.36
2018-10-03T16:48:44.255Z,64.57
2018-10-03T16:51:13.633Z,64.55
2018-10-03T16:53:42.023Z,64.59
2018-10-03T16:56:11.150Z,64.07
2018-10-03T16:58:39.492Z,63.97
2018-10-03T17:01:09.168Z,63.39
2018-10-03T17:03:37.535Z,63.35
2018-10-03T17:06:05.855Z,63.33
2018-10-03T17:08:34.192Z,62.24
2018-10-03T17:11:02.524Z,61.98
2018-10-03T17:13:32.923Z,61.91
2018-10-03T17:16:01.564Z,61.71
2018-10-03T17:18:29.912Z,61.71
2018-10-03T17:20:59.293Z,61.74
2018-10-03T17:23:28.961Z,61.64
2018-10-03T17:25:57.313Z,61.44
2018-10-03T17:28:25.716Z,61.41
2018-10-03T17:30:54.141Z,61.40
2018-10-03T17:33:22.533Z,61.61
2018-10-03T17:35:52.001Z,61.67
2018-10-03T17:38:21.571Z,61.90
2018-10-03T17:40:49.959Z,62.07
2018-10-03T17:43:18.324Z,61.69
2018-10-03T17:45:46.694Z,62.19
2018-10-03T17:48:15.054Z,62.63
2018-10-03T17:50:43.444Z,62.64
2018-10-03T17:53:11.792Z,63.03
2018-10-03T17:55:40.171Z,63.13
2018-10-03T17:58:08.549Z,63.23
2018-10-03T18:00:36.909Z,63.16
2018-10-03T18:03:06.105Z,63.25
2018-10-03T18:05:34.437Z,63.86
2018-10-03T18:08:02.781Z,63.68
2018-10-03T18:10:31.136Z,63.50
2018-10-03T18:12:59.468Z,63.72
2018-10-03T18:15:27.798Z,64.05
2018-10-03T18:17:56.149Z,64.15
2018-10-03T18:20:24.492Z,64.14
2018-10-03T18:22:53.419Z,63.56
2018-10-03T18:25:21.769Z,63.95
2018-10-03T18:27:51.248Z,64.07
2018-10-03T18:30:21.577Z,64.34
2018-10-03T18:32:49.940Z,64.51
2018-10-03T18:35:18.352Z,64.33
2018-10-03T18:37:46.907Z,64.05
2018-10-03T18:40:15.235Z,64.66
2018-10-03T18:42:43.612Z,64.56
2018-10-03T18:45:12.985Z,64.23
2018-10-03T18:47:41.344Z,64.76
2018-10-03T18:50:09.717Z,64.69
2018-10-03T18:52:39.140Z,64.84
2018-10-03T18:55:07.511Z,64.97
2018-10-03T18:57:35.900Z,65.08
2018-10-03T19:00:04.275Z,65.99
2018-10-03T19:02:32.642Z,66.16
2018-10-03T19:05:00.964Z,65.87
2018-10-03T19:07:29.357Z,66.13
2018-10-03T19:09:58.826Z,66.64
2018-10-03T19:12:27.389Z,66.31
2018-10-03T19:14:56.818Z,67.21
2018-10-03T19:17:25.173Z,67.37
2018-10-03T19:19:53.798Z,67.23
2018-10-03T19:22:22.140Z,67.53
2018-10-03T19:24:50.501Z,67.88
2018-10-03T19:27:18.885Z,67.68
2018-10-03T19:29:47.249Z,68.18
2018-10-03T19:32:16.314Z,68.08
2018-10-03T19:34:44.676Z,68.44
2018-10-03T19:37:13.032Z,68.24
2018-10-03T19:39:41.445Z,68.72
2018-10-03T19:42:09.865Z,68.77
2018-10-03T19:44:38.188Z,69.26
2018-10-03T19:47:06.645Z,69.76
2018-10-03T19:49:35.013Z,69.53
2018-10-03T19:52:03.356Z,69.77
2018-10-03T19:54:32.530Z,70.09
2018-10-03T19:57:05.788Z,70.47
2018-10-03T19:59:36.347Z,70.53
2018-10-03T20:02:04.706Z,70.90
2018-10-03T20:04:33.084Z,71.04
2018-10-03T20:07:02.512Z,70.91
2018-10-03T20:09:31.880Z,71.16
2018-10-03T20:12:00.523Z,71.76
2018-10-03T20:14:28.952Z,72.10
2018-10-03T20:16:57.485Z,72.35
2018-10-03T20:19:25.829Z,72.68
2018-10-03T20:21:54.220Z,72.81
2018-10-03T20:24:22.569Z,73.15
2018-10-03T20:26:51.114Z,73.34
2018-10-03T20:29:19.488Z,73.38
2018-10-03T20:31:48.937Z,73.86
2018-10-03T20:34:17.355Z,73.95
2018-10-03T20:36:45.711Z,74.74
2018-10-03T20:39:15.073Z,75.40
2018-10-03T20:41:45.198Z,75.32
2018-10-03T20:44:13.638Z,75.77
2018-10-03T20:46:42.014Z,75.74
2018-10-03T20:49:10.431Z,76.38
2018-10-03T20:51:38.813Z,76.52
2018-10-03T20:54:07.250Z,77.08
2018-10-03T20:56:35.586Z,77.17
2018-10-03T20:59:04.053Z,76.96
2018-10-03T21:01:32.396Z,77.20
2018-10-03T21:04:00.749Z,77.29
2018-10-03T21:06:29.912Z,77.88
2018-10-03T21:08:58.327Z,77.74
2018-10-03T21:11:26.739Z,78.27
2018-10-03T21:13:55.165Z,78.08
2018-10-03T21:16:23.529Z,78.06
2018-10-03T21:18:51.874Z,78.26
2018-10-03T21:21:20.273Z,78.10
2018-10-03T21:23:48.633Z,78.11
2018-10-03T21:26:16.984Z,78.05
2018-10-03T21:28:45.376Z,78.73
2018-10-03T21:31:13.773Z,78.14
2018-10-03T21:33:42.213Z,78.87
2018-10-03T21:38:56.952Z,78.15
2018-10-03T21:41:25.325Z,79.45
2018-10-03T21:43:53.668Z,78.38
2018-10-03T21:46:22.081Z,79.17
2018-10-03T21:48:50.446Z,79.22
2018-10-03T21:51:18.866Z,78.78
2018-10-03T21:53:47.275Z,78.72
2018-10-03T21:56:15.649Z,78.85
2018-10-03T21:58:44.001Z,79.32
2018-10-03T22:01:12.389Z,78.96
2018-10-03T22:03:40.880Z,80.21
2018-10-03T22:06:10.220Z,81.23
2018-10-03T22:08:38.632Z,82.42
2018-10-03T22:11:09.054Z,84.04
2018-10-03T22:13:37.422Z,85.19
2018-10-03T22:16:05.812Z,85.54
2018-10-03T22:18:37.445Z,85.96
2018-10-03T22:21:05.871Z,85.74
2018-10-03T22:23:34.492Z,84.94
2018-10-03T22:26:02.844Z,84.96
2018-10-03T22:28:31.186Z,84.87
2018-10-03T22:30:59.565Z,84.87
2018-10-03T22:33:27.909Z,85.40
2018-10-03T22:35:56.319Z,84.70
2018-10-03T22:38:24.689Z,84.61
2018-10-03T22:40:53.232Z,84.31
2018-10-03T22:43:21.589Z,84.81
2018-10-03T22:45:50.166Z,84.24
2018-10-03T22:48:18.521Z,84.15
2018-10-03T22:50:46.865Z,83.66
2018-10-03T22:53:16.361Z,83.53
2018-10-03T22:55:44.716Z,83.24
2018-10-03T22:58:13.078Z,83.47
2018-10-03T23:00:41.436Z,83.15
2018-10-03T23:03:10.073Z,82.96
2018-10-03T23:05:38.436Z,82.52
2018-10-03T23:08:06.813Z,83.11
2018-10-03T23:10:35.166Z,82.95
2018-10-03T23:13:03.520Z,82.38
2018-10-03T23:15:31.869Z,82.31
2018-10-03T23:18:00.176Z,82.20
2018-10-03T23:20:28.524Z,82.91
2018-10-03T23:22:56.840Z,82.47
2018-10-03T23:25:25.352Z,81.55
2018-10-03T23:27:53.702Z,81.25
2018-10-03T23:30:22.052Z,81.43
2018-10-03T23:32:50.441Z,81.43
2018-10-03T23:35:18.783Z,81.34
2018-10-03T23:37:47.108Z,81.32
2018-10-03T23:40:16.148Z,81.28
2018-10-03T23:42:44.556Z,81.40
2018-10-03T23:45:12.892Z,81.22
2018-10-03T23:47:41.241Z,81.33
2018-10-03T23:50:09.596Z,81.03
2018-10-03T23:52:37.936Z,81.01
2018-10-03T23:55:06.412Z,81.96
2018-10-03T23:57:34.834Z,83.03
